sensor_id;sensor_type;location;lat;lon;timestamp;P1;durP1;ratioP1;P2;durP2;ratioP2
21140;SDS011;10728;53.284;10.314;2022-08-23T00:01:18;3.92;;;1.92;;
21140;SDS011;10728;53.284;10.314;2022-08-23T00:03:45;2.85;;;1.67;;
21140;SDS011;10728;53.284;10.314;2022-08-23T00:06:12;3.25;;;2.10;;
21140;SDS011;10728;53.284;10.314;2022-08-23T00:08:38;3.03;;;1.95;;
21140;SDS011;10728;53.284;10.314;2022-08-23T00:11:04;3.67;;;2.40;;
21140;SDS011;10728;53.284;10.314;2022-08-23T00:13:31;4.05;;;2.25;;
21140;SDS011;10728;53.284;10.314;2022-08-23T00:15:57;5.18;;;2.22;;
21140;SDS011;10728;53.284;10.314;2022-08-23T00:18:23;3.50;;;2.33;;
21140;SDS011;10728;53.284;10.314;2022-08-23T00:20:49;2.53;;;1.95;;
21140;SDS011;10728;53.284;10.314;2022-08-23T00:23:15;6.25;;;2.45;;
21140;SDS011;10728;53.284;10.314;2022-08-23T00:25:41;2.97;;;2.08;;
21140;SDS011;10728;53.284;10.314;2022-08-23T00:28:07;4.25;;;2.10;;
21140;SDS011;10728;53.284;10.314;2022-08-23T00:30:33;2.38;;;2.05;;
21140;SDS011;10728;53.284;10.314;2022-08-23T00:32:59;2.33;;;1.85;;
21140;SDS011;10728;53.284;10.314;2022-08-23T00:35:26;4.15;;;2.45;;
21140;SDS011;10728;53.284;10.314;2022-08-23T00:37:52;3.38;;;2.03;;
21140;SDS011;10728;53.284;10.314;2022-08-23T00:40:18;3.13;;;2.13;;
21140;SDS011;10728;53.284;10.314;2022-08-23T00:45:36;2.42;;;2.17;;
21140;SDS011;10728;53.284;10.314;2022-08-23T00:48:24;3.42;;;2.20;;
21140;SDS011;10728;53.284;10.314;2022-08-23T00:50:53;6.30;;;2.53;;
21140;SDS011;10728;53.284;10.314;2022-08-23T00:53:23;4.20;;;2.53;;
21140;SDS011;10728;53.284;10.314;2022-08-23T00:55:57;3.92;;;2.28;;
21140;SDS011;10728;53.284;10.314;2022-08-23T00:58:24;4.75;;;2.13;;
21140;SDS011;10728;53.284;10.314;2022-08-23T01:00:51;3.00;;;1.92;;
21140;SDS011;10728;53.284;10.314;2022-08-23T01:03:18;5.10;;;2.67;;
21140;SDS011;10728;53.284;10.314;2022-08-23T01:05:54;3.50;;;2.38;;
21140;SDS011;10728;53.284;10.314;2022-08-23T01:08:24;3.20;;;2.30;;
21140;SDS011;10728;53.284;10.314;2022-08-23T01:10:54;2.83;;;2.40;;
21140;SDS011;10728;53.284;10.314;2022-08-23T01:13:24;5.32;;;2.40;;
21140;SDS011;10728;53.284;10.314;2022-08-23T01:16:06;3.08;;;2.30;;
21140;SDS011;10728;53.284;10.314;2022-08-23T01:18:34;3.17;;;2.25;;
21140;SDS011;10728;53.284;10.314;2022-08-23T01:21:02;3.17;;;2.20;;
21140;SDS011;10728;53.284;10.314;2022-08-23T01:23:34;5.03;;;2.53;;
21140;SDS011;10728;53.284;10.314;2022-08-23T01:26:05;3.38;;;2.25;;
21140;SDS011;10728;53.284;10.314;2022-08-23T01:28:33;2.78;;;2.08;;
21140;SDS011;10728;53.284;10.314;2022-08-23T01:31:00;5.03;;;2.40;;
21140;SDS011;10728;53.284;10.314;2022-08-23T01:33:29;2.45;;;1.95;;
21140;SDS011;10728;53.284;10.314;2022-08-23T01:35:56;4.20;;;2.33;;
21140;SDS011;10728;53.284;10.314;2022-08-23T01:38:22;3.67;;;2.58;;
21140;SDS011;10728;53.284;10.314;2022-08-23T01:40:49;3.72;;;2.60;;
21140;SDS011;10728;53.284;10.314;2022-08-23T01:43:15;3.78;;;2.42;;
21140;SDS011;10728;53.284;10.314;2022-08-23T01:45:47;3.40;;;2.30;;
21140;SDS011;10728;53.284;10.314;2022-08-23T01:48:14;2.50;;;2.30;;
21140;SDS011;10728;53.284;10.314;2022-08-23T01:50:40;3.15;;;2.40;;
21140;SDS011;10728;53.284;10.314;2022-08-23T01:53:06;4.45;;;2.30;;
21140;SDS011;10728;53.284;10.314;2022-08-23T01:55:33;3.42;;;1.90;;
21140;SDS011;10728;53.284;10.314;2022-08-23T01:57:59;3.10;;;2.28;;
21140;SDS011;10728;53.284;10.314;2022-08-23T02:00:30;3.55;;;2.53;;
21140;SDS011;10728;53.284;10.314;2022-08-23T02:02:59;6.63;;;3.05;;
21140;SDS011;10728;53.284;10.314;2022-08-23T02:05:26;4.75;;;2.50;;
21140;SDS011;10728;53.284;10.314;2022-08-23T02:07:53;3.40;;;2.50;;
21140;SDS011;10728;53.284;10.314;2022-08-23T02:10:19;2.60;;;2.40;;
21140;SDS011;10728;53.284;10.314;2022-08-23T02:12:46;3.25;;;2.53;;
21140;SDS011;10728;53.284;10.314;2022-08-23T02:15:14;3.35;;;2.55;;
21140;SDS011;10728;53.284;10.314;2022-08-23T02:17:41;4.22;;;2.40;;
21140;SDS011;10728;53.284;10.314;2022-08-23T02:20:08;4.82;;;2.67;;
21140;SDS011;10728;53.284;10.314;2022-08-23T02:22:35;3.67;;;2.50;;
21140;SDS011;10728;53.284;10.314;2022-08-23T02:25:01;3.90;;;2.47;;
21140;SDS011;10728;53.284;10.314;2022-08-23T02:27:27;4.10;;;2.28;;
21140;SDS011;10728;53.284;10.314;2022-08-23T02:29:54;4.90;;;2.38;;
21140;SDS011;10728;53.284;10.314;2022-08-23T02:32:19;3.22;;;2.80;;
21140;SDS011;10728;53.284;10.314;2022-08-23T02:34:46;4.40;;;2.50;;
21140;SDS011;10728;53.284;10.314;2022-08-23T02:37:13;4.15;;;2.50;;
21140;SDS011;10728;53.284;10.314;2022-08-23T02:39:39;2.90;;;2.35;;
21140;SDS011;10728;53.284;10.314;2022-08-23T02:42:07;5.82;;;2.60;;
21140;SDS011;10728;53.284;10.314;2022-08-23T02:44:35;4.57;;;3.30;;
21140;SDS011;10728;53.284;10.314;2022-08-23T02:47:03;6.13;;;3.40;;
21140;SDS011;10728;53.284;10.314;2022-08-23T02:49:31;4.68;;;2.80;;
21140;SDS011;10728;53.284;10.314;2022-08-23T02:51:57;3.90;;;2.75;;
21140;SDS011;10728;53.284;10.314;2022-08-23T02:54:23;5.97;;;3.25;;
21140;SDS011;10728;53.284;10.314;2022-08-23T02:56:48;12.23;;;3.22;;
21140;SDS011;10728;53.284;10.314;2022-08-23T02:59:14;7.68;;;3.25;;
21140;SDS011;10728;53.284;10.314;2022-08-23T03:01:40;5.47;;;3.78;;
21140;SDS011;10728;53.284;10.314;2022-08-23T03:04:21;5.80;;;3.08;;
21140;SDS011;10728;53.284;10.314;2022-08-23T03:06:48;5.20;;;3.03;;
21140;SDS011;10728;53.284;10.314;2022-08-23T03:09:14;3.40;;;2.70;;
21140;SDS011;10728;53.284;10.314;2022-08-23T03:11:47;7.00;;;3.50;;
21140;SDS011;10728;53.284;10.314;2022-08-23T03:14:14;6.22;;;3.08;;
21140;SDS011;10728;53.284;10.314;2022-08-23T03:16:43;3.20;;;2.90;;
21140;SDS011;10728;53.284;10.314;2022-08-23T03:19:09;4.53;;;3.00;;
21140;SDS011;10728;53.284;10.314;2022-08-23T03:21:35;5.20;;;2.83;;
21140;SDS011;10728;53.284;10.314;2022-08-23T03:24:03;4.18;;;3.13;;
21140;SDS011;10728;53.284;10.314;2022-08-23T03:26:29;3.42;;;2.70;;
21140;SDS011;10728;53.284;10.314;2022-08-23T03:28:54;3.17;;;2.70;;
21140;SDS011;10728;53.284;10.314;2022-08-23T03:31:22;5.75;;;3.08;;
21140;SDS011;10728;53.284;10.314;2022-08-23T03:34:05;6.95;;;3.78;;
21140;SDS011;10728;53.284;10.314;2022-08-23T03:36:31;4.32;;;3.30;;
21140;SDS011;10728;53.284;10.314;2022-08-23T03:38:57;4.90;;;3.13;;
21140;SDS011;10728;53.284;10.314;2022-08-23T03:41:24;3.75;;;2.90;;
21140;SDS011;10728;53.284;10.314;2022-08-23T03:43:49;4.25;;;2.88;;
21140;SDS011;10728;53.284;10.314;2022-08-23T03:46:17;5.85;;;2.80;;
21140;SDS011;10728;53.284;10.314;2022-08-23T03:48:57;6.47;;;3.38;;
21140;SDS011;10728;53.284;10.314;2022-08-23T03:51:26;4.82;;;3.00;;
21140;SDS011;10728;53.284;10.314;2022-08-23T03:53:54;3.15;;;2.83;;
21140;SDS011;10728;53.284;10.314;2022-08-23T03:56:24;4.95;;;3.60;;
21140;SDS011;10728;53.284;10.314;2022-08-23T03:59:00;5.22;;;3.20;;
21140;SDS011;10728;53.284;10.314;2022-08-23T04:01:32;4.88;;;3.20;;
21140;SDS011;10728;53.284;10.314;2022-08-23T04:03:58;3.53;;;2.83;;
21140;SDS011;10728;53.284;10.314;2022-08-23T04:06:28;5.63;;;3.17;;
21140;SDS011;10728;53.284;10.314;2022-08-23T04:08:55;6.00;;;3.70;;
21140;SDS011;10728;53.284;10.314;2022-08-23T04:11:21;5.18;;;3.22;;
21140;SDS011;10728;53.284;10.314;2022-08-23T04:13:55;5.80;;;3.28;;
21140;SDS011;10728;53.284;10.314;2022-08-23T04:16:20;4.45;;;2.88;;
21140;SDS011;10728;53.284;10.314;2022-08-23T04:18:46;5.68;;;3.38;;
21140;SDS011;10728;53.284;10.314;2022-08-23T04:21:15;4.68;;;3.60;;
21140;SDS011;10728;53.284;10.314;2022-08-23T04:23:43;9.40;;;3.70;;
21140;SDS011;10728;53.284;10.314;2022-08-23T04:26:09;4.90;;;3.30;;
21140;SDS011;10728;53.284;10.314;2022-08-23T04:28:40;5.72;;;3.28;;
21140;SDS011;10728;53.284;10.314;2022-08-23T04:31:08;7.05;;;3.63;;
21140;SDS011;10728;53.284;10.314;2022-08-23T04:33:35;7.13;;;3.42;;
21140;SDS011;10728;53.284;10.314;2022-08-23T04:36:01;6.75;;;3.42;;
21140;SDS011;10728;53.284;10.314;2022-08-23T04:38:28;3.63;;;3.10;;
21140;SDS011;10728;53.284;10.314;2022-08-23T04:40:59;4.93;;;3.45;;
21140;SDS011;10728;53.284;10.314;2022-08-23T04:43:44;3.88;;;2.90;;
21140;SDS011;10728;53.284;10.314;2022-08-23T04:46:12;3.30;;;2.92;;
21140;SDS011;10728;53.284;10.314;2022-08-23T04:48:43;4.30;;;3.33;;
21140;SDS011;10728;53.284;10.314;2022-08-23T04:51:09;4.88;;;4.00;;
21140;SDS011;10728;53.284;10.314;2022-08-23T04:53:37;5.30;;;3.38;;
21140;SDS011;10728;53.284;10.314;2022-08-23T04:56:22;5.35;;;3.10;;
21140;SDS011;10728;53.284;10.314;2022-08-23T04:58:48;5.25;;;3.28;;
21140;SDS011;10728;53.284;10.314;2022-08-23T05:01:14;4.93;;;2.83;;
21140;SDS011;10728;53.284;10.314;2022-08-23T05:03:42;4.57;;;2.78;;
21140;SDS011;10728;53.284;10.314;2022-08-23T05:06:08;3.10;;;2.80;;
21140;SDS011;10728;53.284;10.314;2022-08-23T05:08:37;2.80;;;2.55;;
21140;SDS011;10728;53.284;10.314;2022-08-23T05:11:06;4.25;;;2.92;;
21140;SDS011;10728;53.284;10.314;2022-08-23T05:13:33;3.05;;;2.70;;
21140;SDS011;10728;53.284;10.314;2022-08-23T05:15:59;7.13;;;3.50;;
21140;SDS011;10728;53.284;10.314;2022-08-23T05:18:30;5.47;;;3.63;;
21140;SDS011;10728;53.284;10.314;2022-08-23T05:20:56;6.65;;;3.70;;
21140;SDS011;10728;53.284;10.314;2022-08-23T05:23:23;3.47;;;2.70;;
21140;SDS011;10728;53.284;10.314;2022-08-23T05:25:52;4.45;;;3.15;;
21140;SDS011;10728;53.284;10.314;2022-08-23T05:28:42;5.35;;;3.60;;
21140;SDS011;10728;53.284;10.314;2022-08-23T05:31:15;4.15;;;3.42;;
21140;SDS011;10728;53.284;10.314;2022-08-23T05:33:50;4.15;;;3.05;;
21140;SDS011;10728;53.284;10.314;2022-08-23T05:36:22;7.63;;;4.00;;
21140;SDS011;10728;53.284;10.314;2022-08-23T05:38:48;5.22;;;3.28;;
21140;SDS011;10728;53.284;10.314;2022-08-23T05:41:18;3.90;;;2.97;;
21140;SDS011;10728;53.284;10.314;2022-08-23T05:43:46;6.28;;;3.72;;
21140;SDS011;10728;53.284;10.314;2022-08-23T05:46:14;5.32;;;3.30;;
21140;SDS011;10728;53.284;10.314;2022-08-23T05:48:47;5.85;;;3.00;;
21140;SDS011;10728;53.284;10.314;2022-08-23T05:51:24;4.65;;;2.70;;
21140;SDS011;10728;53.284;10.314;2022-08-23T05:53:52;4.07;;;2.60;;
21140;SDS011;10728;53.284;10.314;2022-08-23T05:56:24;4.95;;;2.67;;
21140;SDS011;10728;53.284;10.314;2022-08-23T05:58:52;4.35;;;2.45;;
21140;SDS011;10728;53.284;10.314;2022-08-23T06:01:20;3.47;;;2.72;;
21140;SDS011;10728;53.284;10.314;2022-08-23T06:03:48;3.92;;;2.78;;
21140;SDS011;10728;53.284;10.314;2022-08-23T06:06:14;3.83;;;2.80;;
21140;SDS011;10728;53.284;10.314;2022-08-23T06:08:42;5.13;;;2.58;;
21140;SDS011;10728;53.284;10.314;2022-08-23T06:11:12;3.78;;;2.70;;
21140;SDS011;10728;53.284;10.314;2022-08-23T06:13:43;5.25;;;2.47;;
21140;SDS011;10728;53.284;10.314;2022-08-23T06:16:10;4.57;;;2.80;;
21140;SDS011;10728;53.284;10.314;2022-08-23T06:18:37;4.30;;;2.55;;
21140;SDS011;10728;53.284;10.314;2022-08-23T06:21:29;5.85;;;2.67;;
21140;SDS011;10728;53.284;10.314;2022-08-23T06:23:55;6.28;;;2.50;;
21140;SDS011;10728;53.284;10.314;2022-08-23T06:26:27;5.65;;;2.42;;
21140;SDS011;10728;53.284;10.314;2022-08-23T06:28:59;6.43;;;2.40;;
21140;SDS011;10728;53.284;10.314;2022-08-23T06:31:28;5.78;;;2.67;;
21140;SDS011;10728;53.284;10.314;2022-08-23T06:34:15;6.20;;;2.30;;
21140;SDS011;10728;53.284;10.314;2022-08-23T06:37:07;6.53;;;2.35;;
21140;SDS011;10728;53.284;10.314;2022-08-23T06:39:53;5.28;;;2.58;;
21140;SDS011;10728;53.284;10.314;2022-08-23T06:42:44;4.80;;;2.42;;
21140;SDS011;10728;53.284;10.314;2022-08-23T06:45:10;4.85;;;2.47;;
21140;SDS011;10728;53.284;10.314;2022-08-23T06:47:40;3.35;;;2.45;;
21140;SDS011;10728;53.284;10.314;2022-08-23T06:50:06;6.40;;;2.60;;
21140;SDS011;10728;53.284;10.314;2022-08-23T06:52:52;4.10;;;2.58;;
21140;SDS011;10728;53.284;10.314;2022-08-23T06:55:24;4.30;;;2.45;;
21140;SDS011;10728;53.284;10.314;2022-08-23T06:58:13;5.35;;;2.50;;
21140;SDS011;10728;53.284;10.314;2022-08-23T07:02:01;3.50;;;2.60;;
21140;SDS011;10728;53.284;10.314;2022-08-23T07:04:22;6.05;;;2.63;;
21140;SDS011;10728;53.284;10.314;2022-08-23T07:07:16;4.30;;;2.10;;
21140;SDS011;10728;53.284;10.314;2022-08-23T07:09:41;6.35;;;2.70;;
21140;SDS011;10728;53.284;10.314;2022-08-23T07:12:07;5.20;;;2.47;;
21140;SDS011;10728;53.284;10.314;2022-08-23T07:14:36;4.60;;;2.30;;
21140;SDS011;10728;53.284;10.314;2022-08-23T07:17:02;2.78;;;2.03;;
21140;SDS011;10728;53.284;10.314;2022-08-23T07:19:30;4.38;;;2.20;;
21140;SDS011;10728;53.284;10.314;2022-08-23T07:21:58;4.65;;;2.22;;
21140;SDS011;10728;53.284;10.314;2022-08-23T07:24:25;4.85;;;2.40;;
21140;SDS011;10728;53.284;10.314;2022-08-23T07:26:52;4.85;;;2.22;;
21140;SDS011;10728;53.284;10.314;2022-08-23T07:29:19;3.70;;;2.03;;
21140;SDS011;10728;53.284;10.314;2022-08-23T07:31:47;4.00;;;2.03;;
21140;SDS011;10728;53.284;10.314;2022-08-23T07:34:19;5.22;;;2.25;;
21140;SDS011;10728;53.284;10.314;2022-08-23T07:36:45;2.65;;;2.08;;
21140;SDS011;10728;53.284;10.314;2022-08-23T07:39:15;3.85;;;1.75;;
21140;SDS011;10728;53.284;10.314;2022-08-23T07:41:42;5.13;;;1.80;;
21140;SDS011;10728;53.284;10.314;2022-08-23T07:44:09;3.90;;;2.08;;
21140;SDS011;10728;53.284;10.314;2022-08-23T07:46:41;3.35;;;1.88;;
21140;SDS011;10728;53.284;10.314;2022-08-23T07:49:08;3.67;;;2.20;;
21140;SDS011;10728;53.284;10.314;2022-08-23T07:51:44;2.75;;;1.60;;
21140;SDS011;10728;53.284;10.314;2022-08-23T07:54:12;4.05;;;1.85;;
21140;SDS011;10728;53.284;10.314;2022-08-23T07:56:59;4.10;;;1.90;;
21140;SDS011;10728;53.284;10.314;2022-08-23T07:59:45;4.10;;;1.70;;
21140;SDS011;10728;53.284;10.314;2022-08-23T08:02:32;2.05;;;1.65;;
21140;SDS011;10728;53.284;10.314;2022-08-23T08:04:59;2.72;;;1.60;;
21140;SDS011;10728;53.284;10.314;2022-08-23T08:07:25;4.15;;;1.58;;
21140;SDS011;10728;53.284;10.314;2022-08-23T08:09:56;4.03;;;1.52;;
21140;SDS011;10728;53.284;10.314;2022-08-23T08:12:24;3.45;;;1.45;;
21140;SDS011;10728;53.284;10.314;2022-08-23T08:14:53;3.75;;;1.58;;
21140;SDS011;10728;53.284;10.314;2022-08-23T08:17:24;2.00;;;1.50;;
21140;SDS011;10728;53.284;10.314;2022-08-23T08:20:09;3.47;;;1.63;;
21140;SDS011;10728;53.284;10.314;2022-08-23T08:22:55;2.53;;;1.35;;
21140;SDS011;10728;53.284;10.314;2022-08-23T08:25:36;4.38;;;1.67;;
21140;SDS011;10728;53.284;10.314;2022-08-23T08:28:04;6.68;;;1.63;;
21140;SDS011;10728;53.284;10.314;2022-08-23T08:30:30;4.07;;;1.50;;
21140;SDS011;10728;53.284;10.314;2022-08-23T08:32:56;3.03;;;1.50;;
21140;SDS011;10728;53.284;10.314;2022-08-23T08:35:23;2.60;;;1.92;;
21140;SDS011;10728;53.284;10.314;2022-08-23T08:37:49;2.72;;;1.52;;
21140;SDS011;10728;53.284;10.314;2022-08-23T08:40:17;5.18;;;1.70;;
21140;SDS011;10728;53.284;10.314;2022-08-23T08:45:25;1.55;;;1.38;;
21140;SDS011;10728;53.284;10.314;2022-08-23T08:47:59;3.70;;;1.90;;
21140;SDS011;10728;53.284;10.314;2022-08-23T08:50:34;4.32;;;1.98;;
21140;SDS011;10728;53.284;10.314;2022-08-23T08:56:19;3.63;;;2.00;;
21140;SDS011;10728;53.284;10.314;2022-08-23T08:58:54;4.15;;;2.00;;
21140;SDS011;10728;53.284;10.314;2022-08-23T09:01:23;4.68;;;1.90;;
21140;SDS011;10728;53.284;10.314;2022-08-23T09:03:50;3.70;;;1.58;;
21140;SDS011;10728;53.284;10.314;2022-08-23T09:06:26;3.92;;;1.40;;
21140;SDS011;10728;53.284;10.314;2022-08-23T09:11:45;2.20;;;1.50;;
21140;SDS011;10728;53.284;10.314;2022-08-23T09:14:37;5.47;;;1.70;;
21140;SDS011;10728;53.284;10.314;2022-08-23T09:20:06;2.63;;;1.48;;
21140;SDS011;10728;53.284;10.314;2022-08-23T09:22:38;3.80;;;1.52;;
21140;SDS011;10728;53.284;10.314;2022-08-23T09:25:17;4.88;;;1.60;;
21140;SDS011;10728;53.284;10.314;2022-08-23T09:27:57;2.60;;;1.55;;
21140;SDS011;10728;53.284;10.314;2022-08-23T09:30:33;2.65;;;1.60;;
21140;SDS011;10728;53.284;10.314;2022-08-23T09:33:14;2.67;;;1.70;;
21140;SDS011;10728;53.284;10.314;2022-08-23T09:35:42;3.92;;;1.60;;
21140;SDS011;10728;53.284;10.314;2022-08-23T09:38:17;3.05;;;1.50;;
21140;SDS011;10728;53.284;10.314;2022-08-23T09:40:55;2.05;;;1.52;;
21140;SDS011;10728;53.284;10.314;2022-08-23T09:43:22;2.28;;;1.60;;
21140;SDS011;10728;53.284;10.314;2022-08-23T09:53:44;2.42;;;1.35;;
21140;SDS011;10728;53.284;10.314;2022-08-23T09:56:34;4.45;;;1.80;;
21140;SDS011;10728;53.284;10.314;2022-08-23T09:59:18;1.70;;;1.20;;
21140;SDS011;10728;53.284;10.314;2022-08-23T10:01:45;3.38;;;1.60;;
21140;SDS011;10728;53.284;10.314;2022-08-23T10:04:16;2.85;;;1.60;;
21140;SDS011;10728;53.284;10.314;2022-08-23T10:06:47;2.95;;;1.58;;
21140;SDS011;10728;53.284;10.314;2022-08-23T10:09:27;3.45;;;1.42;;
21140;SDS011;10728;53.284;10.314;2022-08-23T10:11:56;1.85;;;1.48;;
21140;SDS011;10728;53.284;10.314;2022-08-23T10:14:22;2.10;;;1.40;;
21140;SDS011;10728;53.284;10.314;2022-08-23T10:17:02;1.77;;;1.40;;
21140;SDS011;10728;53.284;10.314;2022-08-23T10:19:36;2.20;;;1.30;;
21140;SDS011;10728;53.284;10.314;2022-08-23T10:22:09;4.80;;;1.60;;
21140;SDS011;10728;53.284;10.314;2022-08-23T10:38:41;1.55;;;1.30;;
21140;SDS011;10728;53.284;10.314;2022-08-23T10:44:10;2.63;;;1.30;;
21140;SDS011;10728;53.284;10.314;2022-08-23T10:46:46;1.77;;;1.13;;
21140;SDS011;10728;53.284;10.314;2022-08-23T10:49:16;1.98;;;0.93;;
21140;SDS011;10728;53.284;10.314;2022-08-23T10:51:44;4.88;;;1.02;;
21140;SDS011;10728;53.284;10.314;2022-08-23T10:56:43;2.00;;;1.30;;
21140;SDS011;10728;53.284;10.314;2022-08-23T10:59:10;3.13;;;1.40;;
21140;SDS011;10728;53.284;10.314;2022-08-23T11:01:49;3.20;;;1.50;;
21140;SDS011;10728;53.284;10.314;2022-08-23T11:04:43;1.60;;;1.20;;
21140;SDS011;10728;53.284;10.314;2022-08-23T11:07:31;1.88;;;1.20;;
21140;SDS011;10728;53.284;10.314;2022-08-23T11:12:54;1.80;;;1.10;;
21140;SDS011;10728;53.284;10.314;2022-08-23T11:18:54;2.13;;;1.20;;
21140;SDS011;10728;53.284;10.314;2022-08-23T11:28:51;6.10;;;1.42;;
21140;SDS011;10728;53.284;10.314;2022-08-23T11:37:46;4.25;;;0.77;;
21140;SDS011;10728;53.284;10.314;2022-08-23T11:40:36;5.40;;;1.00;;
21140;SDS011;10728;53.284;10.314;2022-08-23T11:43:09;2.72;;;1.10;;
21140;SDS011;10728;53.284;10.314;2022-08-23T11:45:45;3.00;;;1.05;;
21140;SDS011;10728;53.284;10.314;2022-08-23T11:48:17;3.03;;;1.10;;
21140;SDS011;10728;53.284;10.314;2022-08-23T11:56:19;2.22;;;1.00;;
21140;SDS011;10728;53.284;10.314;2022-08-23T12:13:28;2.78;;;1.25;;
21140;SDS011;10728;53.284;10.314;2022-08-23T12:23:57;7.03;;;1.33;;
21140;SDS011;10728;53.284;10.314;2022-08-23T12:28:55;6.90;;;1.30;;
21140;SDS011;10728;53.284;10.314;2022-08-23T12:31:26;9.57;;;2.58;;
21140;SDS011;10728;53.284;10.314;2022-08-23T12:34:00;2.00;;;1.40;;
21140;SDS011;10728;53.284;10.314;2022-08-23T12:39:18;3.50;;;1.20;;
21140;SDS011;10728;53.284;10.314;2022-08-23T12:42:00;2.67;;;1.17;;
21140;SDS011;10728;53.284;10.314;2022-08-23T12:44:34;3.40;;;1.10;;
21140;SDS011;10728;53.284;10.314;2022-08-23T12:47:16;4.53;;;1.60;;
21140;SDS011;10728;53.284;10.314;2022-08-23T12:52:23;7.82;;;1.70;;
21140;SDS011;10728;53.284;10.314;2022-08-23T12:54:50;2.80;;;1.40;;
21140;SDS011;10728;53.284;10.314;2022-08-23T12:57:21;3.70;;;1.40;;
21140;SDS011;10728;53.284;10.314;2022-08-23T13:02:23;3.40;;;1.40;;
21140;SDS011;10728;53.284;10.314;2022-08-23T13:04:50;2.35;;;1.30;;
21140;SDS011;10728;53.284;10.314;2022-08-23T13:07:18;3.22;;;1.20;;
21140;SDS011;10728;53.284;10.314;2022-08-23T13:09:45;4.45;;;1.75;;
21140;SDS011;10728;53.284;10.314;2022-08-23T13:12:12;3.78;;;1.45;;
21140;SDS011;10728;53.284;10.314;2022-08-23T13:19:46;2.33;;;1.40;;
21140;SDS011;10728;53.284;10.314;2022-08-23T13:22:23;4.13;;;1.20;;
21140;SDS011;10728;53.284;10.314;2022-08-23T13:27:31;5.05;;;1.63;;
21140;SDS011;10728;53.284;10.314;2022-08-23T13:32:41;3.92;;;1.50;;
21140;SDS011;10728;53.284;10.314;2022-08-23T13:40:44;3.08;;;1.60;;
21140;SDS011;10728;53.284;10.314;2022-08-23T13:43:14;2.22;;;1.50;;
21140;SDS011;10728;53.284;10.314;2022-08-23T13:45:49;2.65;;;1.45;;
21140;SDS011;10728;53.284;10.314;2022-08-23T13:48:21;4.95;;;1.60;;
21140;SDS011;10728;53.284;10.314;2022-08-23T13:51:16;2.45;;;1.48;;
21140;SDS011;10728;53.284;10.314;2022-08-23T13:53:43;3.60;;;1.45;;
21140;SDS011;10728;53.284;10.314;2022-08-23T13:56:09;2.28;;;1.50;;
21140;SDS011;10728;53.284;10.314;2022-08-23T13:58:35;6.03;;;1.50;;
21140;SDS011;10728;53.284;10.314;2022-08-23T14:01:01;4.25;;;1.50;;
21140;SDS011;10728;53.284;10.314;2022-08-23T14:03:28;2.35;;;1.55;;
21140;SDS011;10728;53.284;10.314;2022-08-23T14:05:55;4.18;;;1.60;;
21140;SDS011;10728;53.284;10.314;2022-08-23T14:08:21;2.45;;;1.60;;
21140;SDS011;10728;53.284;10.314;2022-08-23T14:10:48;3.25;;;1.67;;
21140;SDS011;10728;53.284;10.314;2022-08-23T14:13:17;2.63;;;1.30;;
21140;SDS011;10728;53.284;10.314;2022-08-23T14:15:44;4.38;;;1.40;;
21140;SDS011;10728;53.284;10.314;2022-08-23T14:18:10;4.30;;;1.70;;
21140;SDS011;10728;53.284;10.314;2022-08-23T14:20:39;2.53;;;1.38;;
21140;SDS011;10728;53.284;10.314;2022-08-23T14:23:05;2.88;;;1.52;;
21140;SDS011;10728;53.284;10.314;2022-08-23T14:25:30;2.75;;;1.38;;
21140;SDS011;10728;53.284;10.314;2022-08-23T14:27:56;3.75;;;1.60;;
21140;SDS011;10728;53.284;10.314;2022-08-23T14:30:28;5.00;;;1.70;;
21140;SDS011;10728;53.284;10.314;2022-08-23T14:32:55;3.50;;;1.35;;
21140;SDS011;10728;53.284;10.314;2022-08-23T14:35:24;2.90;;;1.30;;
21140;SDS011;10728;53.284;10.314;2022-08-23T14:37:49;2.92;;;1.50;;
21140;SDS011;10728;53.284;10.314;2022-08-23T14:40:15;3.03;;;1.40;;
21140;SDS011;10728;53.284;10.314;2022-08-23T14:42:41;2.58;;;1.13;;
21140;SDS011;10728;53.284;10.314;2022-08-23T14:45:11;5.60;;;1.58;;
21140;SDS011;10728;53.284;10.314;2022-08-23T14:47:37;4.07;;;1.58;;
21140;SDS011;10728;53.284;10.314;2022-08-23T14:50:03;7.38;;;1.40;;
21140;SDS011;10728;53.284;10.314;2022-08-23T14:52:29;2.97;;;1.33;;
21140;SDS011;10728;53.284;10.314;2022-08-23T14:54:55;3.25;;;1.33;;
21140;SDS011;10728;53.284;10.314;2022-08-23T14:57:21;3.25;;;1.38;;
21140;SDS011;10728;53.284;10.314;2022-08-23T14:59:47;4.78;;;1.58;;
21140;SDS011;10728;53.284;10.314;2022-08-23T15:02:15;4.95;;;1.52;;
21140;SDS011;10728;53.284;10.314;2022-08-23T15:04:44;2.75;;;1.85;;
21140;SDS011;10728;53.284;10.314;2022-08-23T15:07:10;4.47;;;1.25;;
21140;SDS011;10728;53.284;10.314;2022-08-23T15:09:38;3.45;;;1.20;;
21140;SDS011;10728;53.284;10.314;2022-08-23T15:12:05;3.03;;;1.40;;
21140;SDS011;10728;53.284;10.314;2022-08-23T15:14:31;2.28;;;1.50;;
21140;SDS011;10728;53.284;10.314;2022-08-23T15:16:56;2.50;;;1.50;;
21140;SDS011;10728;53.284;10.314;2022-08-23T15:19:22;3.97;;;1.33;;
21140;SDS011;10728;53.284;10.314;2022-08-23T15:21:47;5.05;;;1.38;;
21140;SDS011;10728;53.284;10.314;2022-08-23T15:24:13;2.40;;;1.42;;
21140;SDS011;10728;53.284;10.314;2022-08-23T15:26:38;2.15;;;1.42;;
21140;SDS011;10728;53.284;10.314;2022-08-23T15:29:04;3.88;;;1.48;;
21140;SDS011;10728;53.284;10.314;2022-08-23T15:31:30;3.88;;;1.30;;
21140;SDS011;10728;53.284;10.314;2022-08-23T15:33:55;3.38;;;1.67;;
21140;SDS011;10728;53.284;10.314;2022-08-23T15:36:21;4.38;;;1.50;;
21140;SDS011;10728;53.284;10.314;2022-08-23T15:38:47;4.63;;;1.90;;
21140;SDS011;10728;53.284;10.314;2022-08-23T15:41:15;4.75;;;1.70;;
21140;SDS011;10728;53.284;10.314;2022-08-23T15:43:42;8.90;;;2.45;;
21140;SDS011;10728;53.284;10.314;2022-08-23T15:46:08;4.82;;;1.77;;
21140;SDS011;10728;53.284;10.314;2022-08-23T15:48:58;4.13;;;2.45;;
21140;SDS011;10728;53.284;10.314;2022-08-23T15:51:22;5.90;;;2.47;;
21140;SDS011;10728;53.284;10.314;2022-08-23T15:53:47;3.85;;;1.60;;
21140;SDS011;10728;53.284;10.314;2022-08-23T15:56:21;2.45;;;1.42;;
21140;SDS011;10728;53.284;10.314;2022-08-23T15:59:12;1.52;;;1.27;;
21140;SDS011;10728;53.284;10.314;2022-08-23T16:01:39;7.35;;;1.48;;
21140;SDS011;10728;53.284;10.314;2022-08-23T16:04:06;5.90;;;1.58;;
21140;SDS011;10728;53.284;10.314;2022-08-23T16:06:32;2.08;;;1.40;;
21140;SDS011;10728;53.284;10.314;2022-08-23T16:08:58;3.10;;;1.50;;
21140;SDS011;10728;53.284;10.314;2022-08-23T16:11:33;5.15;;;1.88;;
21140;SDS011;10728;53.284;10.314;2022-08-23T16:13:59;2.78;;;1.73;;
21140;SDS011;10728;53.284;10.314;2022-08-23T16:16:26;5.93;;;1.50;;
21140;SDS011;10728;53.284;10.314;2022-08-23T16:18:57;3.25;;;1.50;;
21140;SDS011;10728;53.284;10.314;2022-08-23T16:21:24;3.05;;;1.60;;
21140;SDS011;10728;53.284;10.314;2022-08-23T16:23:52;3.35;;;1.80;;
21140;SDS011;10728;53.284;10.314;2022-08-23T16:26:25;3.33;;;1.77;;
21140;SDS011;10728;53.284;10.314;2022-08-23T16:28:53;4.72;;;1.60;;
21140;SDS011;10728;53.284;10.314;2022-08-23T16:31:20;5.65;;;1.77;;
21140;SDS011;10728;53.284;10.314;2022-08-23T16:33:46;2.88;;;1.48;;
21140;SDS011;10728;53.284;10.314;2022-08-23T16:36:13;3.42;;;1.88;;
21140;SDS011;10728;53.284;10.314;2022-08-23T16:38:42;3.13;;;1.60;;
21140;SDS011;10728;53.284;10.314;2022-08-23T16:41:12;3.03;;;1.63;;
21140;SDS011;10728;53.284;10.314;2022-08-23T16:43:38;6.60;;;2.00;;
21140;SDS011;10728;53.284;10.314;2022-08-23T16:46:04;2.42;;;1.60;;
21140;SDS011;10728;53.284;10.314;2022-08-23T16:48:31;3.65;;;1.65;;